Time;durP1;ratioP1;P1;durP2;ratioP2;P2;SDS_P1;SDS_P2;PMS_P1;PMS_P2;Temp;Humidity;BMP_temperature;BMP_pressure;BME280_temperature;BME280_humidity;BME280_pressure;Samples;Min_cycle;Max_cycle;Signal;HPM_P1;HPM_P2
2022/01/26 00:07:32;;;;;;;;;29.50;20.75;;;;;2.17;76.38;102713.47;5034991;28;45830;-80
2022/01/26 00:09:58;;;;;;;;;29.00;23.75;;;;;2.12;75.73;102707.47;5036396;28;45719;-79
2022/01/26 00:12:24;;;;;;;;;28.25;25.00;;;;;2.12;75.44;102712.63;5035811;28;45776;-80
2022/01/26 00:14:49;;;;;;;;;26.00;23.00;;;;;2.17;76.20;102718.66;5035058;28;45626;-78
2022/01/26 00:17:15;;;;;;;;;28.50;21.50;;;;;2.12;75.98;102717.81;5035374;28;45567;-79
2022/01/26 00:19:54;;;;;;;;;27.50;24.00;;;;;2.00;75.50;102685.09;5035643;28;47274;-79
2022/01/26 00:25:23;;;;;;;;;34.00;26.25;;;;;2.14;75.69;102697.13;5045192;28;45548;-79
2022/01/26 00:41:59;;;;;;;;;30.50;26.00;;;;;2.22;75.76;102716.91;5033657;28;46119;-77
2022/01/26 00:44:36;;;;;;;;;33.25;25.25;;;;;2.08;75.72;102695.41;5033792;28;45609;-77
2022/01/26 00:47:01;;;;;;;;;26.75;24.00;;;;;1.98;75.79;102676.50;5034180;28;45519;-81
2022/01/26 00:49:27;;;;;;;;;42.75;25.50;;;;;2.25;75.77;102729.00;5033634;28;46575;-79
2022/01/26 00:51:54;;;;;;;;;36.75;28.75;;;;;2.29;75.78;102712.59;5034052;28;46191;-80
2022/01/26 00:57:42;;;;;;;;;30.75;25.00;;;;;2.32;75.84;102712.59;5033734;28;45590;-79
2022/01/26 01:00:30;;;;;;;;;31.50;28.00;;;;;2.31;75.86;102714.31;5033859;28;45530;-80
2022/01/26 01:02:57;;;;;;;;;25.25;24.25;;;;;2.37;75.55;102727.25;5033415;28;46217;-79
2022/01/26 01:05:29;;;;;;;;;38.50;26.50;;;;;2.38;75.53;102726.34;5032110;28;45625;-79
2022/01/26 01:08:04;;;;;;;;;26.25;22.25;;;;;2.39;76.00;102719.44;5033655;28;45836;-80
2022/01/26 01:14:05;;;;;;;;;30.00;24.75;;;;;2.41;75.71;102722.91;5026023;28;46139;-78
2022/01/26 01:16:30;;;;;;;;;32.25;23.75;;;;;2.38;75.82;102716.00;5033843;28;45726;-77
2022/01/26 01:19:04;;;;;;;;;32.25;23.75;;;;;2.41;75.81;102716.00;5048692;28;45621;-77
2022/01/26 01:31:44;;;;;;;;;33.25;27.50;;;;;2.49;75.46;102714.25;5036449;28;45444;-79
2022/01/26 01:34:10;;;;;;;;;26.75;22.75;;;;;2.23;75.43;102682.44;5036434;28;46211;-80
2022/01/26 01:36:38;;;;;;;;;32.25;26.25;;;;;2.47;75.32;102716.00;5037585;28;45605;-80
2022/01/26 01:39:07;;;;;;;;;27.00;24.00;;;;;2.41;75.59;102710.84;5037297;28;45559;-81
2022/01/26 01:44:54;;;;;;;;;29.50;26.75;;;;;2.42;75.54;102706.53;5036096;28;46119;-79
2022/01/26 01:47:19;;;;;;;;;33.50;26.50;;;;;2.49;75.25;102719.41;5036713;28;45549;-77
2022/01/26 01:49:44;;;;;;;;;27.50;23.00;;;;;2.42;75.45;102711.69;5036728;28;45691;-78
2022/01/26 01:52:14;;;;;;;;;29.00;22.25;;;;;2.47;75.37;102720.31;5036071;28;46700;-78
2022/01/26 01:54:44;;;;;;;;;30.75;24.25;;;;;2.45;75.36;102722.88;5036104;28;45524;-77
2022/01/26 01:57:10;;;;;;;;;25.50;23.00;;;;;2.49;74.96;102729.75;5036442;28;45859;-79
2022/01/26 01:59:36;;;;;;;;;38.75;24.75;;;;;2.45;75.37;102725.47;5036116;28;45701;-80
2022/01/26 02:02:02;;;;;;;;;26.25;20.00;;;;;2.52;74.97;102741.84;5036140;28;45539;-79
2022/01/26 02:04:28;;;;;;;;;31.75;22.50;;;;;2.49;75.49;102731.47;5036032;28;47529;-82
2022/01/26 02:06:54;;;;;;;;;26.75;24.75;;;;;2.51;75.51;102740.13;5035820;28;45630;-77
2022/01/26 02:09:20;;;;;;;;;30.75;26.00;;;;;2.51;75.06;102733.22;5036486;28;45663;-77
2022/01/26 02:15:14;;;;;;;;;28.50;24.75;;;;;2.49;75.35;102737.53;5024931;28;46026;-79
2022/01/26 02:20:45;;;;;;;;;32.50;22.75;;;;;2.50;74.95;102747.00;5035750;28;45638;-79
2022/01/26 03:00:14;;;;;;;;;29.50;26.50;;;;;2.58;75.00;102728.03;5035579;28;45737;-78
2022/01/26 03:02:50;;;;;;;;;23.00;20.25;;;;;2.60;74.64;102724.53;5035346;28;45578;-77
2022/01/26 03:05:18;;;;;;;;;28.75;26.00;;;;;2.57;74.93;102714.22;5035443;28;45626;-77
2022/01/26 03:07:52;;;;;;;;;31.25;22.50;;;;;2.62;74.57;102717.66;5035024;28;47528;-79
2022/01/26 03:10:26;;;;;;;;;33.00;23.00;;;;;2.61;74.62;102718.50;5035174;28;45989;-81
2022/01/26 03:13:04;;;;;;;;;23.50;19.00;;;;;2.58;74.47;102703.00;5050388;28;45653;-78
2022/01/26 03:15:44;;;;;;;;;31.00;23.00;;;;;2.61;74.82;102705.56;5035175;28;46021;-77
2022/01/26 03:20:39;;;;;;;;;21.75;17.75;;;;;2.57;74.31;102693.53;5035099;28;46167;-76
2022/01/26 03:29:09;;;;;;;;;24.75;19.25;;;;;2.73;74.36;102720.19;5035198;28;46131;-78
2022/01/26 03:34:19;;;;;;;;;22.75;17.75;;;;;2.78;74.23;102700.31;5035972;28;45827;-75
2022/01/26 03:36:52;;;;;;;;;27.50;22.50;;;;;2.78;74.38;102703.78;5036113;28;45619;-78
2022/01/26 03:39:21;;;;;;;;;22.25;21.25;;;;;2.81;74.53;102695.97;5034823;28;45640;-79
2022/01/26 03:44:14;;;;;;;;;32.00;23.75;;;;;2.85;74.55;102691.66;5034301;28;45614;-80
2022/01/26 03:46:48;;;;;;;;;32.00;20.50;;;;;2.89;74.64;102706.31;5034828;28;45618;-81
2022/01/26 03:49:13;;;;;;;;;24.25;21.00;;;;;2.73;74.22;102677.06;5034349;28;46659;-82
2022/01/26 03:51:40;;;;;;;;;22.75;19.25;;;;;2.88;74.35;102695.09;5034772;28;45641;-82
2022/01/26 03:54:06;;;;;;;;;29.50;22.50;;;;;2.89;74.30;102712.34;5034110;28;45444;-76
2022/01/26 03:56:33;;;;;;;;;24.25;21.00;;;;;2.89;73.98;102708.88;5034998;28;45510;-81
2022/01/26 03:58:59;;;;;;;;;29.50;24.00;;;;;2.89;74.29;102707.16;5034538;28;46384;-82
2022/01/26 04:01:24;;;;;;;;;29.50;25.00;;;;;2.91;74.16;102709.75;5034493;28;45564;-78
2022/01/26 04:03:50;;;;;;;;;25.50;18.75;;;;;2.93;74.18;102708.00;5035165;28;45622;-79
2022/01/26 04:06:16;;;;;;;;;31.25;25.75;;;;;2.93;74.29;102702.81;5034949;28;45647;-79
2022/01/26 04:08:43;;;;;;;;;23.75;20.00;;;;;2.91;74.45;102696.81;5036343;28;45678;-79
2022/01/26 04:13:34;;;;;;;;;33.00;24.00;;;;;3.01;73.99;102701.06;5049418;28;45733;-78
2022/01/26 04:16:00;;;;;;;;;33.75;22.25;;;;;3.04;74.16;102697.56;5039943;28;45754;-81
2022/01/26 04:18:33;;;;;;;;;22.00;19.75;;;;;3.05;74.19;102692.41;5034748;28;45679;-80
2022/01/26 04:21:04;;;;;;;;;30.25;26.75;;;;;3.05;74.18;102691.53;5033925;28;46210;-78
2022/01/26 04:23:39;;;;;;;;;29.25;26.25;;;;;3.09;74.24;102688.91;5034611;28;45857;-81
2022/01/26 04:26:05;;;;;;;;;45.75;25.75;;;;;3.05;74.09;102678.59;5034457;28;45574;-80
2022/01/26 04:28:43;;;;;;;;;36.50;25.50;;;;;3.07;73.88;102684.63;5034368;28;45534;-79
2022/01/26 04:31:09;;;;;;;;;35.50;26.50;;;;;3.13;73.97;102698.38;5033761;28;47596;-80
2022/01/26 04:33:35;;;;;;;;;35.25;26.00;;;;;2.98;74.17;102667.41;5034074;28;45606;-80
2022/01/26 04:36:03;;;;;;;;;33.50;27.25;;;;;3.15;73.86;102686.28;5034147;28;45652;-80
2022/01/26 04:38:36;;;;;;;;;40.50;31.00;;;;;3.19;74.06;102692.28;5034163;28;46295;-77
2022/01/26 04:41:26;;;;;;;;;35.75;28.50;;;;;3.22;73.98;102692.28;5033917;28;45893;-80
2022/01/26 04:43:56;;;;;;;;;31.50;25.00;;;;;3.23;73.64;102683.66;5034050;28;45836;-78
2022/01/26 04:46:21;;;;;;;;;40.00;28.25;;;;;3.20;73.92;102676.75;5032594;28;45871;-79
2022/01/26 04:48:48;;;;;;;;;38.25;29.50;;;;;3.22;73.73;102687.09;5034477;28;45620;-80
2022/01/26 04:51:14;;;;;;;;;41.50;32.25;;;;;3.15;73.74;102662.09;5033841;28;46034;-81
2022/01/26 04:53:39;;;;;;;;;45.25;35.00;;;;;3.26;73.62;102681.03;5032490;28;45613;-78
2022/01/26 04:56:05;;;;;;;;;37.50;31.25;;;;;3.25;73.37;102684.47;5036060;28;45643;-77
2022/01/26 04:58:30;;;;;;;;;39.75;35.25;;;;;3.35;73.60;102691.31;5035402;28;45829;-78
2022/01/26 05:00:56;;;;;;;;;44.75;32.75;;;;;3.37;73.66;102690.44;5033895;28;45690;-78
2022/01/26 05:03:21;;;;;;;;;42.25;32.75;;;;;3.40;73.63;102680.94;5037167;28;46072;-80
2022/01/26 05:05:46;;;;;;;;;35.75;29.00;;;;;3.40;73.33;102678.34;5037242;28;45868;-79
2022/01/26 05:08:12;;;;;;;;;38.75;34.75;;;;;3.42;73.28;102677.44;5036938;28;45538;-79
2022/01/26 05:10:41;;;;;;;;;34.75;29.00;;;;;3.43;73.28;102688.66;5037377;28;45614;-81
2022/01/26 05:16:29;;;;;;;;;31.00;27.75;;;;;3.42;73.39;102680.03;5026348;28;45813;-78
2022/01/26 05:18:55;;;;;;;;;35.75;31.50;;;;;3.43;73.12;102673.13;5037031;28;46502;-81
2022/01/26 05:21:22;;;;;;;;;42.75;34.50;;;;;3.45;73.49;102679.16;5036839;28;45977;-78
2022/01/26 05:23:47;;;;;;;;;40.00;29.25;;;;;3.51;73.21;102689.47;5036684;28;45684;-80
2022/01/26 05:26:12;;;;;;;;;35.25;30.00;;;;;3.51;73.42;102687.72;5036972;28;45504;-80
2022/01/26 05:28:39;;;;;;;;;41.50;34.50;;;;;3.53;73.07;102683.41;5036594;28;45944;-79
2022/01/26 05:31:04;;;;;;;;;49.00;31.50;;;;;3.51;73.01;102677.34;5038640;28;46302;-78
2022/01/26 05:33:30;;;;;;;;;40.00;31.75;;;;;3.52;73.13;102671.31;5038741;28;45519;-78
2022/01/26 05:35:55;;;;;;;;;39.50;31.75;;;;;3.56;73.01;102679.94;5038563;28;45449;-79
2022/01/26 05:38:20;;;;;;;;;34.00;30.75;;;;;3.52;72.87;102665.25;5038175;28;46583;-78
2022/01/26 05:40:46;;;;;;;;;39.25;33.00;;;;;3.54;72.72;102659.19;5039875;28;45683;-77
2022/01/26 05:46:43;;;;;;;;;43.00;31.75;;;;;3.62;72.75;102664.28;5037368;28;45622;-75
2022/01/26 05:49:10;;;;;;;;;35.75;28.75;;;;;3.63;72.81;102666.03;5037273;28;46288;-76
2022/01/26 05:51:36;;;;;;;;;37.75;31.50;;;;;3.61;72.81;102670.38;5037074;28;46283;-80
2022/01/26 05:54:04;;;;;;;;;50.50;36.00;;;;;3.64;72.62;102662.56;5036851;28;45519;-76
2022/01/26 05:56:30;;;;;;;;;41.25;33.50;;;;;3.64;72.81;102678.97;5036951;28;45612;-78
2022/01/26 05:58:55;;;;;;;;;42.75;29.00;;;;;3.65;72.50;102672.91;5037011;28;45535;-79
2022/01/26 06:01:21;;;;;;;;;35.50;30.00;;;;;3.66;72.77;102660.81;5037023;28;46234;-81
2022/01/26 06:03:47;;;;;;;;;37.75;34.50;;;;;3.51;72.88;102643.66;5036896;28;45663;-80
2022/01/26 06:06:12;;;;;;;;;37.50;28.25;;;;;3.68;72.45;102672.03;5036913;28;45737;-80
2022/01/26 06:08:38;;;;;;;;;36.75;26.50;;;;;3.50;72.55;102641.13;5037090;28;45513;-80
2022/01/26 06:11:04;;;;;;;;;39.75;36.25;;;;;3.61;72.38;102667.78;5037217;28;46148;-80
2022/01/26 06:16:51;;;;;;;;;44.25;36.00;;;;;3.61;72.41;102671.25;5032519;28;46270;-80
2022/01/26 06:19:16;;;;;;;;;46.00;32.50;;;;;3.67;72.20;102675.50;5035967;28;46564;-77
2022/01/26 06:21:42;;;;;;;;;37.50;33.75;;;;;3.66;72.25;102687.59;5036181;28;46025;-77
2022/01/26 06:24:07;;;;;;;;;42.00;37.25;;;;;3.67;72.13;102696.25;5036520;28;45689;-78
2022/01/26 06:26:32;;;;;;;;;51.75;40.50;;;;;3.66;72.29;102697.97;5036560;28;45820;-78
2022/01/26 06:32:20;;;;;;;;;37.25;30.50;;;;;3.65;72.28;102705.75;5036603;28;45663;-79
2022/01/26 06:34:46;;;;;;;;;42.25;36.00;;;;;3.63;71.97;102710.94;5036769;28;45539;-80
2022/01/26 06:37:16;;;;;;;;;53.50;40.75;;;;;3.41;71.77;102683.47;5037783;28;45533;-78
2022/01/26 06:39:41;;;;;;;;;42.50;36.50;;;;;3.52;72.47;102697.22;5056053;28;47464;-79
2022/01/26 06:42:12;;;;;;;;;48.75;41.25;;;;;3.70;72.15;102729.91;5043940;28;45570;-77
2022/01/26 06:44:48;;;;;;;;;45.00;36.00;;;;;3.43;72.20;102681.75;5041943;28;45439;-77
2022/01/26 06:47:56;;;;;;;;;43.75;34.00;;;;;3.51;71.84;102705.03;5041982;28;45554;-79
2022/01/26 06:50:00;;;;;;;;;42.75;37.00;;;;;3.73;71.79;102746.28;5041745;28;47090;-78
2022/01/26 06:52:25;;;;;;;;;44.00;39.25;;;;;3.29;71.77;102678.44;5039367;28;45824;-78
2022/01/26 06:54:51;;;;;;;;;42.00;36.00;;;;;3.71;71.81;102752.34;5036877;28;45690;-78
2022/01/26 06:57:16;;;;;;;;;40.75;33.25;;;;;3.54;71.96;102725.72;5037000;28;45660;-76
2022/01/26 06:59:42;;;;;;;;;48.50;35.50;;;;;3.60;71.99;102728.25;5036144;28;46471;-81
2022/01/26 07:02:07;;;;;;;;;46.50;38.50;;;;;3.59;71.95;102721.34;5035704;28;45972;-76
2022/01/26 07:04:33;;;;;;;;;51.25;40.25;;;;;3.68;72.00;102740.28;5035656;28;46096;-79
2022/01/26 07:06:58;;;;;;;;;45.00;32.50;;;;;3.73;71.81;102750.59;5035849;28;45656;-80
2022/01/26 07:09:24;;;;;;;;;45.75;35.75;;;;;3.60;71.50;102725.66;5035175;28;46400;-78
2022/01/26 07:11:49;;;;;;;;;56.50;45.50;;;;;3.69;71.97;102749.78;5035480;28;45655;-80
2022/01/26 07:22:45;;;;;;;;;42.25;34.25;;;;;3.50;71.46;102705.88;5034724;28;46192;-78
2022/01/26 07:25:11;;;;;;;;;51.25;39.25;;;;;3.59;71.47;102722.22;5034487;28;45591;-80
2022/01/26 07:27:36;;;;;;;;;47.00;36.25;;;;;3.66;71.79;102720.44;5035063;28;45606;-78
2022/01/26 07:30:03;;;;;;;;;58.25;41.75;;;;;3.73;71.57;102741.09;5035810;28;46342;-80
2022/01/26 07:32:30;;;;;;;;;40.50;33.25;;;;;3.73;71.76;102738.50;5034987;28;46957;-79
2022/01/26 07:34:55;;;;;;;;;53.00;36.00;;;;;3.75;71.66;102746.28;5036839;28;45744;-78
2022/01/26 07:37:21;;;;;;;;;39.50;33.25;;;;;3.69;71.73;102738.53;5038871;28;45567;-80
2022/01/26 07:40:00;;;;;;;;;54.25;41.00;;;;;3.75;71.79;102751.44;5039249;28;47422;-81
2022/01/26 07:42:25;;;;;;;;;49.75;36.50;;;;;3.75;71.55;102744.53;5042149;28;45732;-77
2022/01/26 07:44:51;;;;;;;;;52.00;36.00;;;;;3.76;71.53;102753.19;5057171;28;45775;-80
2022/01/26 07:47:16;;;;;;;;;46.75;34.00;;;;;3.75;71.71;102748.84;5053565;28;45761;-83
2022/01/26 07:49:42;;;;;;;;;49.75;39.00;;;;;3.66;71.56;102743.75;5052939;28;46612;-80
2022/01/26 07:52:08;;;;;;;;;47.00;32.75;;;;;3.70;71.70;102742.84;5045023;28;45673;-78
2022/01/26 07:54:34;;;;;;;;;50.00;39.75;;;;;3.76;71.50;102756.63;5061460;28;45742;-83
2022/01/26 07:57:00;;;;;;;;;62.25;43.00;;;;;3.78;71.52;102759.19;5048365;28;45556;-80
2022/01/26 08:02:49;;;;;;;;;42.00;35.75;;;;;3.76;71.80;102768.72;5056100;28;45504;-79
2022/01/26 08:05:15;;;;;;;;;54.25;43.00;;;;;3.73;71.68;102764.41;5051071;28;45269;-80
2022/01/26 08:07:41;;;;;;;;;42.25;36.00;;;;;3.83;71.69;102779.91;5050710;28;45552;-78
2022/01/26 08:10:08;;;;;;;;;37.50;33.50;;;;;3.72;71.29;102752.34;5050400;28;45339;-80
2022/01/26 08:12:34;;;;;;;;;45.75;37.25;;;;;3.83;71.83;102754.84;5048561;28;45526;-77
2022/01/26 08:14:59;;;;;;;;;51.50;35.00;;;;;3.84;71.68;102750.50;5037968;28;45484;-78
2022/01/26 08:17:25;;;;;;;;;39.75;30.50;;;;;3.86;71.46;102735.81;5036524;28;45473;-77
2022/01/26 08:19:55;;;;;;;;;55.00;38.25;;;;;3.91;71.44;102734.88;5035835;28;46530;-76
2022/01/26 08:22:23;;;;;;;;;41.75;35.75;;;;;3.95;71.32;102743.47;5035474;28;46225;-81
2022/01/26 08:24:50;;;;;;;;;46.00;40.00;;;;;3.98;71.60;102746.94;5035342;28;45567;-78
2022/01/26 08:27:17;;;;;;;;;36.50;33.00;;;;;3.88;71.53;102723.69;5035795;28;45538;-76
2022/01/26 08:33:05;;;;;;;;;59.00;36.50;;;;;4.08;71.39;102738.19;5035097;28;46077;-80
2022/01/26 08:35:32;;;;;;;;;42.50;29.25;;;;;4.10;71.23;102730.41;5036710;28;45840;-80
2022/01/26 08:37:58;;;;;;;;;35.50;31.75;;;;;4.12;71.20;102749.38;5038484;28;45708;-79
2022/01/26 08:40:24;;;;;;;;;42.00;34.00;;;;;4.15;71.35;102754.56;5038870;28;46458;-79
2022/01/26 08:42:49;;;;;;;;;36.75;31.00;;;;;3.97;71.13;102703.72;5038167;28;45788;-77
2022/01/26 08:45:15;;;;;;;;;38.00;29.50;;;;;4.18;70.90;102723.38;5038065;28;45871;-84
2022/01/26 08:47:40;;;;;;;;;49.50;39.50;;;;;4.22;71.01;102749.25;5037680;28;45892;-77
2022/01/26 08:50:07;;;;;;;;;44.00;37.00;;;;;4.27;70.94;102749.22;5038065;28;46132;-79
2022/01/26 08:52:33;;;;;;;;;35.50;28.75;;;;;4.32;71.32;102754.38;5053238;28;46317;-78
2022/01/26 08:54:58;;;;;;;;;41.25;34.00;;;;;4.32;70.84;102754.38;5038169;28;45536;-81
2022/01/26 08:57:23;;;;;;;;;38.00;28.50;;;;;4.35;71.18;102754.34;5038115;28;45622;-77
2022/01/26 09:03:11;;;;;;;;;35.50;29.50;;;;;4.27;70.91;102762.19;5038005;28;46322;-80
2022/01/26 09:05:36;;;;;;;;;42.25;31.50;;;;;4.31;71.03;102768.22;5038603;28;45588;-79
2022/01/26 09:08:03;;;;;;;;;39.25;31.75;;;;;4.25;71.13;102753.59;5038659;28;45429;-82
2022/01/26 09:10:32;;;;;;;;;44.00;36.50;;;;;4.22;71.33;102749.25;5037738;28;46373;-79
2022/01/26 09:12:58;;;;;;;;;40.25;31.00;;;;;4.24;71.17;102749.25;5037596;28;46124;-82
2022/01/26 09:15:29;;;;;;;;;45.25;37.50;;;;;4.33;71.15;102759.53;5035890;28;45573;-79
2022/01/26 09:17:56;;;;;;;;;53.25;34.50;;;;;4.39;71.09;102771.59;5037364;28;45652;-81
2022/01/26 09:20:22;;;;;;;;;43.00;35.25;;;;;4.43;70.94;102775.84;5037358;28;45582;-81
2022/01/26 09:22:47;;;;;;;;;47.75;37.75;;;;;4.28;71.34;102757.84;5036935;28;45493;-80
2022/01/26 09:25:13;;;;;;;;;38.75;33.50;;;;;4.46;71.00;102787.09;5037078;28;45728;-82
2022/01/26 09:27:38;;;;;;;;;48.25;38.50;;;;;4.50;70.87;102793.94;5037214;28;45784;-78
2022/01/26 09:33:25;;;;;;;;;55.25;36.75;;;;;4.54;70.74;102797.34;5036527;28;46040;-82
2022/01/26 09:35:50;;;;;;;;;48.25;31.50;;;;;4.55;70.91;102801.69;5037303;28;45584;-79
2022/01/26 09:38:17;;;;;;;;;50.00;41.25;;;;;4.56;70.32;102808.59;5037285;28;45873;-77
2022/01/26 09:40:43;;;;;;;;;43.75;36.75;;;;;4.55;70.80;102788.69;5037212;28;46201;-81
2022/01/26 09:43:10;;;;;;;;;51.00;42.25;;;;;4.61;70.91;102786.91;5037097;28;45666;-80
2022/01/26 09:45:35;;;;;;;;;59.50;46.25;;;;;4.64;70.85;102789.44;5037070;28;45608;-79
2022/01/26 09:48:02;;;;;;;;;63.50;44.00;;;;;4.59;70.92;102787.78;5037004;28;45783;-81
2022/01/26 09:50:30;;;;;;;;;50.50;42.00;;;;;4.67;70.76;102809.34;5036507;28;46092;-83
2022/01/26 09:52:56;;;;;;;;;53.25;43.75;;;;;4.61;70.89;102807.66;5037144;28;45881;-83
2022/01/26 09:55:23;;;;;;;;;48.50;39.50;;;;;4.65;70.89;102818.88;5036721;28;45718;-77
2022/01/26 09:57:48;;;;;;;;;50.25;36.25;;;;;4.66;70.66;102838.75;5036346;28;45773;-77
2022/01/26 10:03:35;;;;;;;;;56.75;42.00;;;;;4.70;70.43;102824.88;5034398;28;45773;-80
2022/01/26 10:06:03;;;;;;;;;50.25;39.25;;;;;4.61;70.41;102807.66;5032975;28;45981;-78
2022/01/26 10:19:03;;;;;;;;;40.75;29.00;;;;;4.79;70.38;102817.00;5034570;28;45873;-78
2022/01/26 10:21:29;;;;;;;;;50.00;36.25;;;;;4.81;70.55;102825.59;5034613;28;45700;-78
2022/01/26 10:23:59;;;;;;;;;33.50;29.50;;;;;4.84;70.71;102815.22;5033857;28;46313;-80
2022/01/26 10:26:25;;;;;;;;;48.00;33.50;;;;;4.84;70.68;102814.34;5033296;28;45892;-80
2022/01/26 10:28:59;;;;;;;;;46.00;32.75;;;;;4.91;70.47;102816.00;5032159;28;45904;-79
2022/01/26 10:31:28;;;;;;;;;44.75;35.50;;;;;4.93;70.94;102815.09;5033130;28;45804;-77
2022/01/26 10:33:59;;;;;;;;;43.25;38.25;;;;;4.97;70.75;102810.69;5032456;28;46061;-77
2022/01/26 10:36:36;;;;;;;;;35.50;32.25;;;;;4.82;70.38;102782.31;5031668;28;45669;-76
2022/01/26 10:39:32;;;;;;;;;39.75;31.00;;;;;4.95;70.29;102792.56;5032583;28;45764;-80
2022/01/26 10:42:03;;;;;;;;;45.25;37.00;;;;;4.98;70.56;102799.44;5032436;28;45772;-78
2022/01/26 10:44:41;;;;;;;;;39.50;33.50;;;;;4.96;70.75;102809.88;5032213;28;45736;-80
2022/01/26 10:47:08;;;;;;;;;36.75;31.75;;;;;4.91;70.51;102811.63;5032388;28;46033;-78
2022/01/26 10:52:21;;;;;;;;;54.50;41.25;;;;;5.01;70.74;102812.41;5031831;28;45586;-80
2022/01/26 10:54:47;;;;;;;;;40.50;34.00;;;;;5.02;70.42;102799.38;5032343;28;46272;-76
2022/01/26 10:57:13;;;;;;;;;48.50;36.75;;;;;5.04;70.48;102812.34;5032257;28;45836;-79
2022/01/26 10:59:41;;;;;;;;;45.50;34.75;;;;;5.05;70.55;102801.09;5031300;28;45663;-80
2022/01/26 11:02:08;;;;;;;;;44.75;34.50;;;;;5.06;70.43;102785.50;5032053;28;46513;-79
2022/01/26 11:04:36;;;;;;;;;39.50;33.50;;;;;4.89;70.64;102758.00;5032044;28;46123;-79
2022/01/26 11:07:04;;;;;;;;;51.75;33.75;;;;;5.10;70.43;102798.44;5032403;28;45719;-79
2022/01/26 11:09:33;;;;;;;;;41.25;29.75;;;;;4.95;70.46;102766.59;5032454;28;45792;-78
2022/01/26 11:12:07;;;;;;;;;43.25;31.25;;;;;5.13;70.69;102775.84;5031859;28;45732;-78
2022/01/26 11:14:42;;;;;;;;;39.75;32.50;;;;;5.16;70.46;102781.03;5031563;28;47583;-79
2022/01/26 11:17:09;;;;;;;;;44.00;33.75;;;;;5.19;70.28;102785.31;5032089;28;46145;-78
2022/01/26 11:19:44;;;;;;;;;37.00;30.25;;;;;5.21;70.45;102778.34;5032001;28;45587;-79
2022/01/26 11:22:12;;;;;;;;;52.75;35.00;;;;;5.23;70.71;102776.59;5031970;28;46908;-79
2022/01/26 11:24:46;;;;;;;;;36.50;32.25;;;;;5.23;70.67;102771.41;5031496;28;46223;-78
2022/01/26 11:27:13;;;;;;;;;44.75;38.00;;;;;5.23;70.37;102750.63;5032432;28;45857;-78
2022/01/26 11:29:43;;;;;;;;;48.50;38.00;;;;;5.31;70.05;102765.22;5032529;28;45654;-77
2022/01/26 11:32:14;;;;;;;;;48.00;36.25;;;;;5.16;70.42;102723.00;5032367;28;46841;-80
2022/01/26 11:34:41;;;;;;;;;47.25;37.75;;;;;5.34;70.59;102752.19;5032573;28;46524;-80
2022/01/26 11:37:10;;;;;;;;;42.50;39.00;;;;;5.41;70.57;102765.94;5032276;28;45630;-79
2022/01/26 11:45:12;;;;;;;;;53.75;35.25;;;;;5.44;70.55;102748.56;5031130;28;46370;-79
2022/01/26 11:48:01;;;;;;;;;25.75;22.50;;;;;5.49;70.55;102751.94;5031530;28;45633;-77
2022/01/26 11:50:28;;;;;;;;;37.00;28.75;;;;;5.51;70.65;102740.69;5032276;28;45590;-78
2022/01/26 11:53:03;;;;;;;;;46.50;31.00;;;;;5.54;70.63;102736.28;5032035;28;46969;-78
2022/01/26 11:55:48;;;;;;;;;35.25;29.25;;;;;5.47;70.25;102708.66;5032193;28;46553;-78
2022/01/26 11:58:28;;;;;;;;;29.50;27.75;;;;;5.54;70.53;102718.06;5032330;28;45829;-78
2022/01/26 12:01:17;;;;;;;;;35.50;27.75;;;;;5.54;70.52;102725.88;5031928;28;45515;-78
2022/01/26 12:03:58;;;;;;;;;44.00;29.00;;;;;5.45;70.62;102705.25;5031466;28;47425;-78
2022/01/26 12:06:34;;;;;;;;;35.50;27.00;;;;;5.54;70.66;102710.28;5031353;28;46136;-79
2022/01/26 12:09:00;;;;;;;;;48.25;37.00;;;;;5.52;70.48;102709.44;5031448;28;45801;-79
2022/01/26 12:11:29;;;;;;;;;28.00;20.00;;;;;5.53;70.46;102710.28;5030440;28;45606;-79
2022/01/26 12:17:29;;;;;;;;;27.75;25.00;;;;;5.57;70.23;102710.22;5032527;28;45689;-76
2022/01/26 12:32:01;;;;;;;;;33.25;30.25;;;;;5.58;70.54;102705.88;5033233;28;45682;-80
2022/01/26 12:35:07;;;;;;;;;36.75;31.75;;;;;5.68;69.88;102697.91;5032742;28;45683;-77
2022/01/26 12:37:53;;;;;;;;;33.25;25.75;;;;;5.69;70.26;102704.81;5032754;28;45898;-77
2022/01/26 12:43:36;;;;;;;;;43.25;32.25;;;;;5.69;69.77;102703.97;5032488;28;46026;-77
2022/01/26 12:46:04;;;;;;;;;45.00;34.50;;;;;5.69;70.19;102715.22;5032998;28;45666;-77
2022/01/26 12:48:30;;;;;;;;;36.25;29.50;;;;;5.66;70.01;102709.22;5032854;28;46286;-78
2022/01/26 12:50:58;;;;;;;;;42.25;32.00;;;;;5.71;70.00;102712.59;5032635;28;46435;-78
2022/01/26 12:53:28;;;;;;;;;40.75;30.25;;;;;5.52;69.89;102678.25;5032472;28;46021;-77
2022/01/26 12:55:56;;;;;;;;;35.75;25.25;;;;;5.74;69.84;102716.00;5032965;28;45608;-78
2022/01/26 12:58:34;;;;;;;;;33.75;27.75;;;;;5.74;70.07;102712.53;5032404;28;45741;-76
2022/01/26 13:01:06;;;;;;;;;43.25;33.75;;;;;5.78;69.86;102704.66;5032174;28;46261;-78
2022/01/26 13:03:37;;;;;;;;;43.50;31.50;;;;;5.78;69.81;102704.66;5032123;28;45889;-79
2022/01/26 13:06:12;;;;;;;;;42.50;34.50;;;;;5.82;69.66;102697.66;5032693;28;45790;-78
2022/01/26 13:08:47;;;;;;;;;39.00;34.75;;;;;5.85;70.07;102692.41;5032422;28;45539;-79
2022/01/26 13:11:21;;;;;;;;;57.75;40.75;;;;;5.88;69.63;102687.19;5032086;28;46179;-79
2022/01/26 13:13:46;;;;;;;;;38.50;33.25;;;;;5.90;69.67;102685.41;5032152;28;46118;-80
2022/01/26 13:16:25;;;;;;;;;57.50;39.75;;;;;5.93;69.77;102684.50;5031846;28;45770;-80
2022/01/26 13:26:59;;;;;;;;;42.75;36.25;;;;;5.82;69.76;102682.06;5035817;28;45675;-77
2022/01/26 13:32:12;;;;;;;;;45.50;34.50;;;;;5.79;69.62;102680.38;5035011;28;46118;-77
2022/01/26 13:35:07;;;;;;;;;34.25;22.75;;;;;5.82;69.75;102692.47;5035131;28;45693;-78
2022/01/26 13:51:57;;;;;;;;;45.25;35.75;;;;;5.70;69.98;102692.69;5034959;28;45716;-79
2022/01/26 13:57:38;;;;;;;;;38.50;34.50;;;;;5.56;69.61;102677.28;5035026;28;45739;-79
2022/01/26 13:59:52;;;;;;;;;51.00;37.00;;;;;5.38;69.85;102644.69;5034654;28;46013;-79
2022/01/26 14:05:39;;;;;;;;;41.25;36.00;;;;;5.62;69.85;102681.53;5034419;28;45662;-78
2022/01/26 14:08:05;;;;;;;;;43.00;35.25;;;;;5.44;69.78;102646.34;5034457;28;45621;-78
2022/01/26 14:10:30;;;;;;;;;42.50;33.75;;;;;5.63;69.68;102683.25;5034849;28;45864;-78
2022/01/26 14:12:56;;;;;;;;;47.75;37.50;;;;;5.64;69.57;102679.78;5034586;28;45700;-79
2022/01/26 14:15:27;;;;;;;;;35.75;31.00;;;;;5.44;69.46;102642.00;5034611;28;46129;-79
2022/01/26 14:20:45;;;;;;;;;50.50;36.75;;;;;5.55;69.54;102662.59;5034525;28;45852;-78
2022/01/26 14:25:36;;;;;;;;;42.50;34.50;;;;;5.57;69.52;102663.41;5034521;28;46008;-80
2022/01/26 14:28:07;;;;;;;;;39.75;33.25;;;;;5.47;69.46;102641.06;5034542;28;45709;-78
2022/01/26 14:31:19;;;;;;;;;51.00;41.25;;;;;5.54;69.38;102655.69;5034346;28;45575;-78
2022/01/26 14:50:57;;;;;;;;;42.25;35.25;;;;;5.59;69.50;102647.81;4992388;28;45641;-78
2022/01/26 15:22:30;;;;;;;;;39.00;27.75;;;;;5.37;69.47;102668.09;5033406;28;46405;-79
2022/01/26 15:33:06;;;;;;;;;35.00;26.75;;;;;5.34;69.28;102656.03;5033176;28;46288;-78
2022/01/26 15:40:21;;;;;;;;;33.75;26.50;;;;;5.53;69.67;102674.75;5032869;28;45575;-77
2022/01/26 16:07:14;;;;;;;;;34.50;30.75;;;;;5.47;69.43;102670.53;5032968;28;45804;-77
2022/01/26 16:26:21;;;;;;;;;41.25;31.00;;;;;5.54;69.88;102640.09;5031693;28;45942;-79
2022/01/26 16:38:46;;;;;;;;;38.00;30.75;;;;;5.75;69.22;102642.31;5032852;28;45714;-78
2022/01/26 17:11:06;;;;;;;;;48.75;35.00;;;;;5.74;69.23;102624.13;5019791;28;45644;-78
2022/01/26 18:04:07;;;;;;;;;44.75;34.75;;;;;5.65;69.17;102647.69;4992780;28;45780;-78
2022/01/26 18:26:10;;;;;;;;;51.75;40.50;;;;;5.44;69.51;102672.31;4992009;28;45733;-78
2022/01/26 18:50:54;;;;;;;;;57.00;41.75;;;;;5.56;69.61;102702.47;4991648;28;46167;-82
2022/01/26 18:53:19;;;;;;;;;44.00;35.50;;;;;5.54;69.38;102710.28;4991992;28;45788;-82